Time;durP1;ratioP1;P1;durP2;ratioP2;P2;SDS_P1;SDS_P2;PMS_P1;PMS_P2;Temp;Humidity;BMP_temperature;BMP_pressure;BME280_temperature;BME280_humidity;BME280_pressure;Samples;Min_cycle;Max_cycle;Signal;HPM_P1;HPM_P2
2022/10/02 00:00:01;;;;;;;17.52;4.35;;;;;;;;;;4890357;29;20606;-61
2022/10/02 00:02:51;;;;;;;20.67;3.80;;;;;;;;;;4892194;29;20028;-61
2022/10/02 00:05:27;;;;;;;14.83;4.00;;;;;;;;;;4893615;29;20056;-60
2022/10/02 00:08:05;;;;;;;17.38;4.40;;;;;;;;;;4893255;29;20036;-61
2022/10/02 00:10:48;;;;;;;13.20;4.00;;;;;;;;;;4883807;29;20076;-61
2022/10/02 00:13:22;;;;;;;14.13;3.83;;;;;;;;;;4894965;29;20044;-60
2022/10/02 00:15:49;;;;;;;16.80;5.18;;;;;;;;;;4888975;29;20124;-60
2022/10/02 00:18:27;;;;;;;18.02;4.38;;;;;;;;;;4896271;29;20060;-61
2022/10/02 00:21:21;;;;;;;14.32;4.22;;;;;;;;;;4891448;29;20029;-62
2022/10/02 00:24:07;;;;;;;16.05;3.92;;;;;;;;;;4893502;29;20087;-62
2022/10/02 00:26:51;;;;;;;18.20;4.35;;;;;;;;;;4880517;29;20434;-62
2022/10/02 00:29:46;;;;;;;19.73;4.35;;;;;;;;;;4896298;29;20159;-62
2022/10/02 00:32:43;;;;;;;22.15;4.53;;;;;;;;;;4881331;29;20504;-62
2022/10/02 00:35:30;;;;;;;19.08;5.05;;;;;;;;;;4894517;29;20449;-61
2022/10/02 00:38:07;;;;;;;25.63;4.75;;;;;;;;;;4892501;29;20111;-61
2022/10/02 00:40:41;;;;;;;19.70;5.30;;;;;;;;;;4895439;29;20044;-61
2022/10/02 00:43:25;;;;;;;17.38;4.57;;;;;;;;;;4893065;29;20039;-61
2022/10/02 00:46:48;;;;;;;19.10;4.72;;;;;;;;;;4875531;29;20377;-62
2022/10/02 00:49:34;;;;;;;20.30;5.10;;;;;;;;;;4856053;29;20045;-61
2022/10/02 00:52:09;;;;;;;25.30;5.07;;;;;;;;;;4891834;29;20127;-61
2022/10/02 00:54:52;;;;;;;18.25;4.57;;;;;;;;;;4895497;29;20043;-62
2022/10/02 00:57:26;;;;;;;18.73;4.70;;;;;;;;;;4867708;29;20041;-62
2022/10/02 01:00:07;;;;;;;18.83;4.53;;;;;;;;;;4878403;29;20052;-61
2022/10/02 01:02:41;;;;;;;18.77;6.45;;;;;;;;;;4885710;29;20033;-62
2022/10/02 01:05:08;;;;;;;18.40;4.38;;;;;;;;;;4897123;29;20470;-61
2022/10/02 01:07:37;;;;;;;21.33;4.85;;;;;;;;;;4898109;29;20478;-61
2022/10/02 01:10:02;;;;;;;15.15;4.30;;;;;;;;;;4896810;29;20024;-62
2022/10/02 01:12:28;;;;;;;23.13;5.38;;;;;;;;;;4899143;29;20080;-61
2022/10/02 01:14:53;;;;;;;21.35;4.55;;;;;;;;;;4897655;29;20497;-61
2022/10/02 01:17:28;;;;;;;21.05;4.65;;;;;;;;;;4898350;29;20393;-61
2022/10/02 01:19:54;;;;;;;24.08;4.93;;;;;;;;;;4895044;29;20033;-61
2022/10/02 01:22:36;;;;;;;19.75;5.05;;;;;;;;;;4898028;29;20033;-61
2022/10/02 01:25:04;;;;;;;22.25;4.47;;;;;;;;;;4888328;29;20079;-61
2022/10/02 01:27:31;;;;;;;22.05;4.90;;;;;;;;;;4895129;29;20040;-61
2022/10/02 01:30:02;;;;;;;16.92;5.15;;;;;;;;;;4896753;29;20112;-61
2022/10/02 01:32:28;;;;;;;20.60;4.63;;;;;;;;;;4897146;29;20397;-61
2022/10/02 01:34:55;;;;;;;26.73;5.15;;;;;;;;;;4897540;29;20478;-61
2022/10/02 01:37:23;;;;;;;14.38;4.80;;;;;;;;;;4889946;29;20044;-61
2022/10/02 01:39:48;;;;;;;22.75;4.57;;;;;;;;;;4896092;29;20051;-61
2022/10/02 01:42:14;;;;;;;20.70;4.75;;;;;;;;;;4894736;29;20037;-61
2022/10/02 01:44:40;;;;;;;23.52;4.97;;;;;;;;;;4897519;29;20363;-61
2022/10/02 01:47:11;;;;;;;16.33;4.35;;;;;;;;;;4894083;29;20040;-61
2022/10/02 01:49:51;;;;;;;17.98;4.35;;;;;;;;;;4896482;29;20490;-61
2022/10/02 01:52:47;;;;;;;18.33;5.05;;;;;;;;;;4891381;29;20127;-61
2022/10/02 01:55:43;;;;;;;18.65;4.88;;;;;;;;;;4896535;29;20033;-61
2022/10/02 01:58:37;;;;;;;22.60;4.80;;;;;;;;;;4896594;29;20040;-61
2022/10/02 02:01:03;;;;;;;20.65;5.07;;;;;;;;;;4895198;29;20032;-61
2022/10/02 02:03:36;;;;;;;17.35;4.25;;;;;;;;;;4898139;29;20036;-61
2022/10/02 02:06:04;;;;;;;22.63;5.20;;;;;;;;;;4894161;29;20633;-61
2022/10/02 02:08:52;;;;;;;23.45;4.97;;;;;;;;;;4897029;29;20514;-62
2022/10/02 02:11:20;;;;;;;20.08;5.03;;;;;;;;;;4889329;29;20044;-61
2022/10/02 02:14:00;;;;;;;23.25;4.70;;;;;;;;;;4895294;29;20036;-61
2022/10/02 02:16:44;;;;;;;19.58;5.38;;;;;;;;;;4892217;29;20032;-61
2022/10/02 02:19:28;;;;;;;26.75;5.47;;;;;;;;;;4896415;29;20044;-62
2022/10/02 02:22:01;;;;;;;23.85;5.45;;;;;;;;;;4895595;29;20489;-61
2022/10/02 02:24:51;;;;;;;28.08;5.20;;;;;;;;;;4893641;29;20116;-61
2022/10/02 02:27:21;;;;;;;20.50;5.00;;;;;;;;;;4894443;29;20060;-61
2022/10/02 02:29:50;;;;;;;23.48;5.03;;;;;;;;;;4893953;29;20379;-61
2022/10/02 02:32:21;;;;;;;21.92;6.35;;;;;;;;;;4897066;29;20048;-61
2022/10/02 02:34:54;;;;;;;28.88;6.43;;;;;;;;;;4894478;29;20379;-61
2022/10/02 02:37:24;;;;;;;26.83;5.60;;;;;;;;;;4894559;29;20036;-61
2022/10/02 02:40:05;;;;;;;21.40;6.05;;;;;;;;;;4892967;29;20478;-61
2022/10/02 02:42:36;;;;;;;25.20;6.35;;;;;;;;;;4896087;29;20044;-61
2022/10/02 02:45:24;;;;;;;26.85;7.20;;;;;;;;;;4892277;29;20029;-61
2022/10/02 02:47:58;;;;;;;22.92;5.93;;;;;;;;;;4892673;29;20485;-61
2022/10/02 02:50:34;;;;;;;32.13;6.90;;;;;;;;;;4894707;29;20071;-61
2022/10/02 02:53:06;;;;;;;30.55;6.63;;;;;;;;;;4896716;29;20790;-61
2022/10/02 02:55:36;;;;;;;32.67;6.60;;;;;;;;;;4892153;29;20037;-61
2022/10/02 02:58:09;;;;;;;23.23;5.75;;;;;;;;;;4895879;29;20036;-61
2022/10/02 03:00:35;;;;;;;25.88;7.10;;;;;;;;;;4894682;29;20386;-61
2022/10/02 03:03:00;;;;;;;30.30;6.43;;;;;;;;;;4889952;29;20065;-61
2022/10/02 03:05:28;;;;;;;31.15;5.97;;;;;;;;;;4894440;29;20075;-61
2022/10/02 03:07:56;;;;;;;29.35;7.05;;;;;;;;;;4893748;29;20478;-61
2022/10/02 03:10:39;;;;;;;23.70;5.60;;;;;;;;;;4893675;29;20039;-61
2022/10/02 03:13:26;;;;;;;28.85;6.10;;;;;;;;;;4870119;29;20037;-61
2022/10/02 03:15:57;;;;;;;25.45;5.28;;;;;;;;;;4895111;29;20053;-61
2022/10/02 03:18:41;;;;;;;27.00;5.65;;;;;;;;;;4892988;29;20036;-61
2022/10/02 03:21:16;;;;;;;24.95;5.53;;;;;;;;;;4886823;29;20550;-61
2022/10/02 03:23:50;;;;;;;31.70;5.75;;;;;;;;;;4893909;29;20044;-61
2022/10/02 03:26:24;;;;;;;29.30;5.68;;;;;;;;;;4894808;29;20116;-61
2022/10/02 03:28:53;;;;;;;24.67;5.35;;;;;;;;;;4893881;29;20048;-61
2022/10/02 03:31:20;;;;;;;23.52;5.18;;;;;;;;;;4894437;29;20043;-61
2022/10/02 03:33:48;;;;;;;28.92;5.30;;;;;;;;;;4893815;29;20041;-61
2022/10/02 03:36:16;;;;;;;28.23;5.55;;;;;;;;;;4895147;29;20036;-61
2022/10/02 03:38:43;;;;;;;28.17;5.65;;;;;;;;;;4896196;29;20032;-61
2022/10/02 03:41:09;;;;;;;30.27;5.35;;;;;;;;;;4890614;29;20115;-61
2022/10/02 03:43:34;;;;;;;23.30;4.88;;;;;;;;;;4893259;29;20434;-61
2022/10/02 03:46:00;;;;;;;21.08;4.85;;;;;;;;;;4893565;29;20032;-61
2022/10/02 03:48:25;;;;;;;19.85;4.20;;;;;;;;;;4895730;29;20028;-61
2022/10/02 03:50:51;;;;;;;30.05;5.85;;;;;;;;;;4886704;29;20115;-61
2022/10/02 03:53:22;;;;;;;28.85;5.43;;;;;;;;;;4877186;29;20482;-61
2022/10/02 03:56:01;;;;;;;23.73;4.65;;;;;;;;;;4893291;29;20035;-61
2022/10/02 03:58:27;;;;;;;24.85;4.80;;;;;;;;;;4893931;29;20433;-61
2022/10/02 04:01:01;;;;;;;25.17;5.13;;;;;;;;;;4891694;29;20107;-61
2022/10/02 04:03:43;;;;;;;29.98;5.07;;;;;;;;;;4874747;29;20155;-61
2022/10/02 04:06:14;;;;;;;26.30;4.95;;;;;;;;;;4895635;29;20059;-61
2022/10/02 04:09:02;;;;;;;25.80;4.88;;;;;;;;;;4888233;29;20479;-61
2022/10/02 04:11:35;;;;;;;27.83;5.90;;;;;;;;;;4881610;29;20055;-61
2022/10/02 04:14:11;;;;;;;35.00;5.28;;;;;;;;;;4891314;29;20857;-61
2022/10/02 04:16:47;;;;;;;25.63;5.28;;;;;;;;;;4892603;29;20032;-61
2022/10/02 04:19:46;;;;;;;30.15;5.15;;;;;;;;;;4893434;29;20075;-61
2022/10/02 04:22:36;;;;;;;28.30;5.65;;;;;;;;;;4889706;29;20480;-61
2022/10/02 04:25:20;;;;;;;19.90;4.53;;;;;;;;;;4893636;29;20036;-61
2022/10/02 04:27:51;;;;;;;26.02;5.90;;;;;;;;;;4893898;29;20037;-61
2022/10/02 04:30:19;;;;;;;34.65;5.82;;;;;;;;;;4894969;29;20055;-61
2022/10/02 04:32:46;;;;;;;27.05;5.50;;;;;;;;;;4892294;29;20072;-61
2022/10/02 04:35:15;;;;;;;29.00;5.32;;;;;;;;;;4895195;29;20037;-61
2022/10/02 04:38:08;;;;;;;28.27;6.07;;;;;;;;;;4877597;29;20145;-61
2022/10/02 04:41:01;;;;;;;28.05;5.63;;;;;;;;;;4896905;29;20044;-61
2022/10/02 04:43:32;;;;;;;31.77;4.93;;;;;;;;;;4900029;29;20032;-62
2022/10/02 04:46:01;;;;;;;32.83;5.93;;;;;;;;;;4896104;29;20045;-61
2022/10/02 04:48:46;;;;;;;28.50;5.28;;;;;;;;;;4897719;29;20084;-61
2022/10/02 04:51:40;;;;;;;35.05;6.03;;;;;;;;;;4896682;29;20041;-61
2022/10/02 04:54:27;;;;;;;27.90;5.63;;;;;;;;;;4880154;29;20084;-61
2022/10/02 04:56:53;;;;;;;24.65;4.97;;;;;;;;;;4893233;29;20028;-61
2022/10/02 04:59:33;;;;;;;34.10;6.35;;;;;;;;;;4885080;29;20051;-61
2022/10/02 05:02:26;;;;;;;29.80;5.50;;;;;;;;;;4895071;29;20032;-61
2022/10/02 05:05:13;;;;;;;25.17;5.00;;;;;;;;;;4897290;29;20056;-61
2022/10/02 05:08:03;;;;;;;30.80;5.95;;;;;;;;;;4897499;29;20056;-61
2022/10/02 05:11:07;;;;;;;22.95;5.75;;;;;;;;;;4897927;29;20390;-61
2022/10/02 05:14:01;;;;;;;26.83;5.38;;;;;;;;;;4897370;29;20064;-61
2022/10/02 05:16:49;;;;;;;23.02;5.10;;;;;;;;;;4892947;29;20052;-61
2022/10/02 05:19:30;;;;;;;24.98;5.15;;;;;;;;;;4888995;29;20040;-61
2022/10/02 05:22:14;;;;;;;28.23;5.53;;;;;;;;;;4898083;29;20087;-61
2022/10/02 05:24:45;;;;;;;21.13;5.13;;;;;;;;;;4898297;29;20057;-62
2022/10/02 05:27:25;;;;;;;22.23;5.20;;;;;;;;;;4896789;29;20045;-61
2022/10/02 05:30:14;;;;;;;30.35;6.22;;;;;;;;;;4883903;29;20051;-65
2022/10/02 05:33:21;;;;;;;25.27;5.80;;;;;;;;;;4898175;29;20115;-64
2022/10/02 05:36:25;;;;;;;25.60;6.35;;;;;;;;;;4887493;29;20056;-64
2022/10/02 05:39:24;;;;;;;22.52;6.43;;;;;;;;;;4856803;29;20041;-63
2022/10/02 05:42:17;;;;;;;27.83;6.15;;;;;;;;;;4847497;29;20046;-63
2022/10/02 05:45:00;;;;;;;25.10;6.00;;;;;;;;;;4857527;29;20094;-61
2022/10/02 05:47:39;;;;;;;25.17;5.35;;;;;;;;;;4858650;29;20108;-62
2022/10/02 05:50:15;;;;;;;26.02;6.47;;;;;;;;;;4856201;29;20053;-62
2022/10/02 05:52:54;;;;;;;17.33;5.30;;;;;;;;;;4857939;29;20124;-60
2022/10/02 05:55:38;;;;;;;18.05;4.90;;;;;;;;;;4855968;29;20132;-62
2022/10/02 05:58:23;;;;;;;18.75;4.53;;;;;;;;;;4858020;29;20755;-64
2022/10/02 06:00:54;;;;;;;17.55;4.20;;;;;;;;;;4854933;29;20049;-62
2022/10/02 06:03:25;;;;;;;;;;;;;;;;;;4840956;29;20061;-63
2022/10/02 06:05:56;;;;;;;14.05;4.00;;;;;;;;;;4854694;29;20296;-62
2022/10/02 06:08:31;;;;;;;17.47;4.10;;;;;;;;;;4845633;29;20045;-62
2022/10/02 06:11:04;;;;;;;15.02;3.88;;;;;;;;;;4896549;29;20287;-63
2022/10/02 06:13:42;;;;;;;13.02;3.08;;;;;;;;;;4896556;29;20036;-63
2022/10/02 06:16:13;;;;;;;12.85;3.30;;;;;;;;;;4896128;29;20036;-63
2022/10/02 06:18:42;;;;;;;11.10;3.38;;;;;;;;;;4897544;29;20135;-63
2022/10/02 06:21:17;;;;;;;11.95;3.47;;;;;;;;;;4896766;29;20040;-63
2022/10/02 06:23:48;;;;;;;14.68;3.75;;;;;;;;;;4893570;29;20042;-62
2022/10/02 06:26:38;;;;;;;12.77;3.40;;;;;;;;;;4896829;29;20041;-64
2022/10/02 06:29:30;;;;;;;12.38;3.88;;;;;;;;;;4896375;29;20143;-64
2022/10/02 06:32:05;;;;;;;9.40;3.80;;;;;;;;;;4888121;29;20076;-63
2022/10/02 06:34:30;;;;;;;21.08;3.85;;;;;;;;;;4896713;29;20036;-63
2022/10/02 06:36:58;;;;;;;14.63;4.00;;;;;;;;;;4896399;29;20048;-63
2022/10/02 06:39:33;;;;;;;11.65;3.70;;;;;;;;;;4891362;29;20040;-63
2022/10/02 06:42:19;;;;;;;13.82;3.70;;;;;;;;;;4878051;29;20398;-63
2022/10/02 06:45:03;;;;;;;11.05;3.60;;;;;;;;;;4894008;29;20035;-63
2022/10/02 06:47:50;;;;;;;14.90;4.10;;;;;;;;;;4894050;29;20036;-62
2022/10/02 06:50:52;;;;;;;11.57;3.58;;;;;;;;;;4885120;29;20044;-65
2022/10/02 06:53:21;;;;;;;14.07;3.70;;;;;;;;;;4895269;29;20482;-63
2022/10/02 06:55:53;;;;;;;12.90;3.75;;;;;;;;;;4879041;29;20040;-62
2022/10/02 06:58:57;;;;;;;12.63;3.95;;;;;;;;;;4892643;29;20470;-63
2022/10/02 07:01:28;;;;;;;17.23;4.15;;;;;;;;;;4894020;29;20128;-63
2022/10/02 07:04:15;;;;;;;11.02;3.78;;;;;;;;;;4894798;29;20545;-64
2022/10/02 07:07:13;;;;;;;15.20;4.10;;;;;;;;;;4892591;29;20048;-61
2022/10/02 07:09:44;;;;;;;14.38;4.88;;;;;;;;;;4894397;29;20048;-63
2022/10/02 07:12:20;;;;;;;13.18;4.30;;;;;;;;;;4895496;29;20115;-62
2022/10/02 07:15:07;;;;;;;12.80;4.15;;;;;;;;;;4894797;29;20033;-62
2022/10/02 07:17:38;;;;;;;14.50;4.40;;;;;;;;;;4896898;29;20111;-63
2022/10/02 07:20:03;;;;;;;;;;;;;;;;;;4895936;29;20032;-63
2022/10/02 07:22:41;;;;;;;14.15;4.32;;;;;;;;;;4896572;29;19915;-64
2022/10/02 07:25:58;;;;;;;13.30;4.50;;;;;;;;;;4894219;29;20037;-63
2022/10/02 07:28:46;;;;;;;12.88;4.40;;;;;;;;;;4896695;29;20048;-63
2022/10/02 07:31:44;;;;;;;13.85;4.30;;;;;;;;;;4868352;29;20049;-63
2022/10/02 07:34:39;;;;;;;13.05;4.70;;;;;;;;;;4889757;29;20044;-63
2022/10/02 07:37:13;;;;;;;11.65;4.78;;;;;;;;;;4894008;29;20087;-64
2022/10/02 07:39:56;;;;;;;15.77;4.70;;;;;;;;;;4895189;29;20068;-63
2022/10/02 07:42:54;;;;;;;14.82;4.68;;;;;;;;;;4895787;29;20382;-64
2022/10/02 07:45:43;;;;;;;16.83;5.70;;;;;;;;;;4895190;29;20081;-63
2022/10/02 07:48:19;;;;;;;12.25;4.32;;;;;;;;;;4895323;29;20036;-63
2022/10/02 07:50:47;;;;;;;14.95;4.88;;;;;;;;;;4895641;29;20036;-61
2022/10/02 07:53:18;;;;;;;15.52;4.65;;;;;;;;;;4894333;29;20393;-62
2022/10/02 07:55:50;;;;;;;19.08;5.00;;;;;;;;;;4894906;29;20116;-62
2022/10/02 07:58:34;;;;;;;14.27;5.40;;;;;;;;;;4893787;29;20044;-64
2022/10/02 08:01:02;;;;;;;15.40;5.72;;;;;;;;;;4895071;29;20383;-64
2022/10/02 08:03:34;;;;;;;17.10;5.47;;;;;;;;;;4893714;29;20045;-63
2022/10/02 08:06:00;;;;;;;15.85;5.63;;;;;;;;;;4877622;29;20052;-64
2022/10/02 08:08:37;;;;;;;18.40;5.18;;;;;;;;;;4893649;29;20040;-63
2022/10/02 08:11:20;;;;;;;14.98;5.35;;;;;;;;;;4892865;29;20029;-63
2022/10/02 08:14:02;;;;;;;18.00;5.72;;;;;;;;;;4897449;29;20036;-61
2022/10/02 08:16:35;;;;;;;18.88;5.50;;;;;;;;;;4899045;29;20041;-64
2022/10/02 08:19:04;;;;;;;17.98;5.53;;;;;;;;;;4893112;29;20060;-63
2022/10/02 08:21:39;;;;;;;13.25;5.70;;;;;;;;;;4896916;29;20043;-64
2022/10/02 08:24:31;;;;;;;15.38;5.18;;;;;;;;;;4897327;29;20032;-64
2022/10/02 08:27:07;;;;;;;12.50;5.75;;;;;;;;;;4897372;29;20032;-63
2022/10/02 08:29:46;;;;;;;18.30;6.10;;;;;;;;;;4898976;29;20044;-62
2022/10/02 08:32:12;;;;;;;16.92;6.50;;;;;;;;;;4881504;29;20043;-64
2022/10/02 08:34:40;;;;;;;14.98;5.90;;;;;;;;;;4885146;29;20033;-64
2022/10/02 08:37:17;;;;;;;12.02;5.45;;;;;;;;;;4863866;29;20045;-63
2022/10/02 08:40:27;;;;;;;15.95;6.50;;;;;;;;;;4889293;29;20405;-62
2022/10/02 08:43:07;;;;;;;17.73;6.63;;;;;;;;;;4884205;29;20107;-63
2022/10/02 08:46:01;;;;;;;18.42;6.45;;;;;;;;;;4898544;29;20057;-63
2022/10/02 08:49:10;;;;;;;21.40;7.18;;;;;;;;;;4879325;29;20040;-61
2022/10/02 08:51:50;;;;;;;19.88;6.47;;;;;;;;;;4895239;29;20477;-63
2022/10/02 08:54:19;;;;;;;12.57;5.93;;;;;;;;;;4886216;29;20032;-64
2022/10/02 08:57:14;;;;;;;14.23;5.95;;;;;;;;;;4885902;29;20033;-62
2022/10/02 09:00:05;;;;;;;17.83;6.95;;;;;;;;;;4896083;29;20393;-64
2022/10/02 09:02:49;;;;;;;17.52;6.93;;;;;;;;;;4899474;29;20124;-64
2022/10/02 09:05:51;;;;;;;17.17;6.40;;;;;;;;;;4885594;29;20057;-65
2022/10/02 09:09:06;;;;;;;17.02;6.72;;;;;;;;;;4899591;29;20172;-64
2022/10/02 09:12:30;;;;;;;19.92;6.00;;;;;;;;;;4881975;29;20049;-64
2022/10/02 09:15:22;;;;;;;16.75;5.82;;;;;;;;;;4876617;29;20044;-64
2022/10/02 09:18:08;;;;;;;16.85;5.80;;;;;;;;;;4898483;29;20036;-64
2022/10/02 09:20:48;;;;;;;14.02;5.20;;;;;;;;;;4898380;29;20032;-64
2022/10/02 09:23:44;;;;;;;13.00;4.93;;;;;;;;;;4898376;29;20041;-64
2022/10/02 09:26:45;;;;;;;12.23;5.00;;;;;;;;;;4897821;29;20092;-64
2022/10/02 09:29:39;;;;;;;12.55;4.97;;;;;;;;;;4891941;29;20056;-64
2022/10/02 09:32:27;;;;;;;15.90;5.47;;;;;;;;;;4898006;29;20114;-64
2022/10/02 09:35:08;;;;;;;14.18;5.20;;;;;;;;;;4880792;29;20063;-64
2022/10/02 09:37:51;;;;;;;17.05;5.65;;;;;;;;;;4898846;29;20037;-63
2022/10/02 09:40:35;;;;;;;13.60;5.55;;;;;;;;;;4898268;29;20032;-64
2022/10/02 09:43:25;;;;;;;15.90;5.32;;;;;;;;;;4896723;29;20064;-64
2022/10/02 09:46:05;;;;;;;13.02;5.35;;;;;;;;;;4897673;29;20047;-63
2022/10/02 09:48:36;;;;;;;14.77;4.97;;;;;;;;;;4897568;29;20048;-65
2022/10/02 09:51:05;;;;;;;21.88;5.45;;;;;;;;;;4893634;29;20041;-64
2022/10/02 09:54:02;;;;;;;17.33;5.63;;;;;;;;;;4898653;29;20123;-64
2022/10/02 09:56:45;;;;;;;15.70;5.90;;;;;;;;;;4879627;29;20044;-64
2022/10/02 09:59:15;;;;;;;14.98;5.30;;;;;;;;;;4881143;29;20048;-64
2022/10/02 10:02:09;;;;;;;12.80;5.00;;;;;;;;;;4898397;29;20041;-64
2022/10/02 10:04:59;;;;;;;15.68;5.55;;;;;;;;;;4898167;29;20094;-64
2022/10/02 10:07:43;;;;;;;11.45;4.93;;;;;;;;;;4895308;29;20172;-64
2022/10/02 10:10:26;;;;;;;13.85;5.25;;;;;;;;;;4898148;29;20032;-64
2022/10/02 10:13:14;;;;;;;15.60;4.93;;;;;;;;;;4897349;29;20119;-64
2022/10/02 10:16:05;;;;;;;10.90;4.25;;;;;;;;;;4897796;29;20656;-63
2022/10/02 10:19:02;;;;;;;9.95;3.90;;;;;;;;;;4898204;29;20094;-65
2022/10/02 10:21:46;;;;;;;12.82;4.18;;;;;;;;;;4896891;29;20485;-64
2022/10/02 10:24:30;;;;;;;10.70;3.42;;;;;;;;;;4895700;29;20041;-64
2022/10/02 10:27:12;;;;;;;12.65;3.40;;;;;;;;;;4896654;29;20037;-64
2022/10/02 10:29:44;;;;;;;9.68;3.00;;;;;;;;;;4897792;29;20044;-64
2022/10/02 10:32:47;;;;;;;9.68;3.20;;;;;;;;;;4893655;29;20132;-64
2022/10/02 10:35:31;;;;;;;8.13;2.75;;;;;;;;;;4883373;29;20037;-64
2022/10/02 10:38:33;;;;;;;10.63;3.13;;;;;;;;;;4878343;29;20029;-64
2022/10/02 10:40:58;;;;;;;9.55;3.10;;;;;;;;;;4878203;29;20117;-65
2022/10/02 10:43:51;;;;;;;11.70;3.50;;;;;;;;;;4892479;29;20085;-64
2022/10/02 10:46:31;;;;;;;10.60;2.83;;;;;;;;;;4897458;29;20044;-63
2022/10/02 10:49:02;;;;;;;11.23;2.75;;;;;;;;;;4895331;29;20033;-63
2022/10/02 10:51:34;;;;;;;10.55;2.78;;;;;;;;;;4897772;29;20047;-64
2022/10/02 10:54:07;;;;;;;13.10;2.90;;;;;;;;;;4896682;29;20394;-63
2022/10/02 10:56:52;;;;;;;8.20;3.25;;;;;;;;;;4897465;29;20084;-64
2022/10/02 10:59:44;;;;;;;11.55;2.90;;;;;;;;;;4896844;29;20041;-63
2022/10/02 11:02:39;;;;;;;9.68;2.72;;;;;;;;;;4895150;29;20048;-64
2022/10/02 11:05:24;;;;;;;8.00;2.83;;;;;;;;;;4887894;29;20055;-64
2022/10/02 11:08:09;;;;;;;7.40;2.83;;;;;;;;;;4896836;29;20032;-64
2022/10/02 11:10:36;;;;;;;8.68;2.63;;;;;;;;;;4897318;29;20040;-63
2022/10/02 11:13:31;;;;;;;6.47;2.70;;;;;;;;;;4896114;29;20104;-63
2022/10/02 11:16:12;;;;;;;7.75;2.67;;;;;;;;;;4896174;29;20486;-64
2022/10/02 11:18:49;;;;;;;11.85;2.90;;;;;;;;;;4895915;29;20032;-63
2022/10/02 11:21:38;;;;;;;7.88;2.40;;;;;;;;;;4897254;29;20471;-64
2022/10/02 11:24:06;;;;;;;6.93;2.05;;;;;;;;;;4895982;29;20055;-64
2022/10/02 11:26:55;;;;;;;8.45;2.28;;;;;;;;;;4896848;29;20119;-63
2022/10/02 11:29:32;;;;;;;7.63;2.30;;;;;;;;;;4897213;29;20436;-64
2022/10/02 11:32:17;;;;;;;9.27;2.30;;;;;;;;;;4894962;29;20088;-63
2022/10/02 11:34:48;;;;;;;7.50;2.08;;;;;;;;;;4895461;29;20044;-63
2022/10/02 11:37:26;;;;;;;9.63;2.53;;;;;;;;;;4896597;29;20037;-63
2022/10/02 11:39:57;;;;;;;9.25;2.38;;;;;;;;;;4895763;29;20036;-63
2022/10/02 11:43:03;;;;;;;6.05;1.92;;;;;;;;;;4896701;29;20036;-63
2022/10/02 11:46:06;;;;;;;10.48;2.28;;;;;;;;;;4888102;29;20048;-63
2022/10/02 11:49:09;;;;;;;9.73;2.53;;;;;;;;;;4895452;29;20032;-63
2022/10/02 11:51:44;;;;;;;10.20;2.75;;;;;;;;;;4896749;29;20136;-65
2022/10/02 11:54:20;;;;;;;9.98;2.38;;;;;;;;;;4895970;29;20071;-65
2022/10/02 11:56:59;;;;;;;10.85;2.35;;;;;;;;;;4895706;29;20124;-61
2022/10/02 12:00:05;;;;;;;12.13;2.53;;;;;;;;;;4896506;29;20032;-63
2022/10/02 12:02:58;;;;;;;8.43;2.53;;;;;;;;;;4895745;29;20057;-63
2022/10/02 12:05:43;;;;;;;9.57;2.63;;;;;;;;;;4895091;29;20056;-64
2022/10/02 12:08:33;;;;;;;9.50;2.78;;;;;;;;;;4896226;29;20048;-66
2022/10/02 12:11:14;;;;;;;8.73;2.00;;;;;;;;;;4895584;29;20088;-65
2022/10/02 12:13:45;;;;;;;8.90;2.22;;;;;;;;;;4879600;29;20064;-64
2022/10/02 12:16:26;;;;;;;8.32;2.15;;;;;;;;;;4896482;29;20047;-64
2022/10/02 12:18:57;;;;;;;10.93;3.40;;;;;;;;;;4894799;29;20040;-64
2022/10/02 12:27:41;;;;;;;9.38;2.15;;;;;;;;;;4894955;29;20113;-64
2022/10/02 12:30:10;;;;;;;8.73;2.13;;;;;;;;;;4895628;29;20032;-65
2022/10/02 12:32:45;;;;;;;12.52;2.33;;;;;;;;;;4876143;29;20161;-65
2022/10/02 12:35:36;;;;;;;9.20;2.35;;;;;;;;;;4877298;29;20356;-64
2022/10/02 12:38:22;;;;;;;8.48;2.42;;;;;;;;;;4860043;29;20489;-65
2022/10/02 12:40:59;;;;;;;9.65;2.08;;;;;;;;;;4876864;29;20044;-63
2022/10/02 12:43:49;;;;;;;9.48;2.40;;;;;;;;;;4893168;29;20040;-66
2022/10/02 12:46:36;;;;;;;5.68;2.10;;;;;;;;;;4877548;29;20045;-64
2022/10/02 12:49:18;;;;;;;13.93;4.25;;;;;;;;;;4876748;29;20048;-63
2022/10/02 12:51:46;;;;;;;10.45;3.13;;;;;;;;;;4877098;29;20093;-61
2022/10/02 12:54:32;;;;;;;11.02;2.22;;;;;;;;;;4860925;29;20447;-63
2022/10/02 12:57:50;;;;;;;11.23;4.15;;;;;;;;;;4877821;29;20033;-64
2022/10/02 13:00:07;;;;;;;7.28;2.17;;;;;;;;;;4897332;29;20089;-65
2022/10/02 13:02:44;;;;;;;11.88;2.80;;;;;;;;;;4899163;29;20439;-64
2022/10/02 13:05:42;;;;;;;10.02;2.95;;;;;;;;;;4899019;29;20053;-63
2022/10/02 13:08:23;;;;;;;32.55;18.55;;;;;;;;;;4882166;29;20056;-64
2022/10/02 13:10:56;;;;;;;11.15;2.67;;;;;;;;;;4896584;29;20040;-63
2022/10/02 13:14:02;;;;;;;12.50;3.63;;;;;;;;;;4899392;29;20041;-65
2022/10/02 13:16:57;;;;;;;6.75;2.50;;;;;;;;;;4899357;29;20036;-65
2022/10/02 13:19:38;;;;;;;8.23;2.05;;;;;;;;;;4898821;29;20037;-63
2022/10/02 13:22:30;;;;;;;9.65;2.50;;;;;;;;;;4897827;29;20107;-63
2022/10/02 13:25:33;;;;;;;6.90;2.10;;;;;;;;;;4881399;29;20072;-62
2022/10/02 13:28:01;;;;;;;10.02;2.25;;;;;;;;;;4898175;29;20035;-63
2022/10/02 13:30:35;;;;;;;7.93;2.65;;;;;;;;;;4899122;29;20041;-63
2022/10/02 13:33:09;;;;;;;10.23;2.38;;;;;;;;;;4882042;29;20029;-63
2022/10/02 13:35:50;;;;;;;8.85;2.17;;;;;;;;;;4888397;29;20121;-63
2022/10/02 13:38:53;;;;;;;8.95;1.98;;;;;;;;;;4896371;29;20039;-63
2022/10/02 13:41:21;;;;;;;8.05;2.08;;;;;;;;;;4898885;29;20051;-63
2022/10/02 13:44:03;;;;;;;11.18;2.10;;;;;;;;;;4897951;29;20092;-63
2022/10/02 13:46:50;;;;;;;7.90;2.00;;;;;;;;;;4898730;29;20064;-62
2022/10/02 13:49:34;;;;;;;8.93;2.17;;;;;;;;;;4898624;29;20493;-63
2022/10/02 13:52:05;;;;;;;9.43;2.10;;;;;;;;;;4896679;29;20045;-64
2022/10/02 13:54:55;;;;;;;8.05;2.10;;;;;;;;;;4897207;29;20041;-64
2022/10/02 13:57:40;;;;;;;7.03;1.80;;;;;;;;;;4881952;29;20043;-67
2022/10/02 14:00:26;;;;;;;8.80;1.75;;;;;;;;;;4897531;29;20036;-64
2022/10/02 14:03:21;;;;;;;8.57;2.22;;;;;;;;;;4880745;29;20044;-65
2022/10/02 14:06:18;;;;;;;9.70;2.50;;;;;;;;;;4897231;29;20398;-61
2022/10/02 14:08:56;;;;;;;6.97;2.20;;;;;;;;;;4897254;29;20162;-61
2022/10/02 14:11:21;;;;;;;10.93;2.60;;;;;;;;;;4896353;29;20041;-63
2022/10/02 14:14:05;;;;;;;16.17;3.10;;;;;;;;;;4897423;29;20367;-62
2022/10/02 14:16:34;;;;;;;12.30;3.00;;;;;;;;;;4897958;29;20044;-64
2022/10/02 14:19:13;;;;;;;10.80;3.10;;;;;;;;;;4897443;29;20037;-64
2022/10/02 14:21:52;;;;;;;10.60;2.33;;;;;;;;;;4893621;29;20035;-64
2022/10/02 14:24:59;;;;;;;15.85;3.03;;;;;;;;;;4877973;29;20060;-65
2022/10/02 14:27:55;;;;;;;10.15;2.80;;;;;;;;;;4886478;29;20060;-65
2022/10/02 14:30:27;;;;;;;11.80;2.70;;;;;;;;;;4897995;29;20052;-65
2022/10/02 14:33:04;;;;;;;8.63;2.67;;;;;;;;;;4896879;29;20025;-65
2022/10/02 14:35:44;;;;;;;11.13;2.88;;;;;;;;;;4898315;29;20132;-65
2022/10/02 14:38:39;;;;;;;7.93;2.60;;;;;;;;;;4895250;29;20028;-64
2022/10/02 14:41:12;;;;;;;9.10;2.72;;;;;;;;;;4880292;29;20678;-65
2022/10/02 14:44:08;;;;;;;9.65;2.63;;;;;;;;;;4877161;29;20470;-65
2022/10/02 14:46:36;;;;;;;8.43;2.88;;;;;;;;;;4878699;29;20056;-66
2022/10/02 14:49:30;;;;;;;7.35;2.67;;;;;;;;;;4878067;29;20043;-68
2022/10/02 14:52:37;;;;;;;8.52;2.63;;;;;;;;;;4863478;29;20048;-66
2022/10/02 14:55:31;;;;;;;7.90;2.47;;;;;;;;;;4895913;29;20044;-67
2022/10/02 14:58:05;;;;;;;9.80;2.70;;;;;;;;;;4896471;29;20036;-67
2022/10/02 15:00:45;;;;;;;12.15;3.00;;;;;;;;;;4897222;29;20040;-67
2022/10/02 15:03:16;;;;;;;11.43;2.92;;;;;;;;;;4897037;29;20079;-67
2022/10/02 15:05:53;;;;;;;9.35;2.95;;;;;;;;;;4880281;29;20135;-66
2022/10/02 15:09:10;;;;;;;9.05;2.70;;;;;;;;;;4897480;29;20028;-67
2022/10/02 15:11:35;;;;;;;9.77;2.40;;;;;;;;;;4876358;29;20048;-67
2022/10/02 15:14:10;;;;;;;6.15;2.08;;;;;;;;;;4894744;29;20504;-67
2022/10/02 15:20:01;;;;;;;9.07;2.20;;;;;;;;;;4886801;29;20047;-68
2022/10/02 15:22:32;;;;;;;9.90;2.53;;;;;;;;;;4889089;29;20041;-64
2022/10/02 15:25:13;;;;;;;13.02;2.30;;;;;;;;;;4893974;29;20037;-65
2022/10/02 15:27:44;;;;;;;7.95;2.20;;;;;;;;;;4882143;29;20124;-66
2022/10/02 15:30:18;;;;;;;8.43;2.15;;;;;;;;;;4860475;29;20390;-65
2022/10/02 15:32:44;;;;;;;7.07;2.50;;;;;;;;;;4869500;29;20059;-67
2022/10/02 15:35:18;;;;;;;7.50;2.47;;;;;;;;;;4895018;29;20477;-66
2022/10/02 15:37:51;;;;;;;8.50;2.47;;;;;;;;;;4894329;29;20605;-66
2022/10/02 15:40:16;;;;;;;9.23;3.20;;;;;;;;;;4895411;29;20068;-67
2022/10/02 15:43:03;;;;;;;9.63;2.70;;;;;;;;;;4893751;29;20091;-68
2022/10/02 15:45:50;;;;;;;10.80;2.50;;;;;;;;;;4895584;29;20044;-65
2022/10/02 15:48:18;;;;;;;14.20;2.80;;;;;;;;;;4877885;29;20033;-65
2022/10/02 15:51:08;;;;;;;7.72;2.38;;;;;;;;;;4888317;29;20041;-64
2022/10/02 15:54:06;;;;;;;12.85;2.33;;;;;;;;;;4889072;29;20036;-65
2022/10/02 15:57:06;;;;;;;7.68;2.53;;;;;;;;;;4891889;29;20045;-63
2022/10/02 15:59:41;;;;;;;11.23;2.88;;;;;;;;;;4890636;29;20398;-64
2022/10/02 16:02:09;;;;;;;7.82;2.30;;;;;;;;;;4894523;29;20138;-64